Not for real navigation | The accuracy of this data is not assured | See disclaimer for more information
ICAO NAME COUNTRY WIND Kt GUST Kt VIS TEMP/DEW BARO
PPIT 27 0 800 -13/-14 29.53
PPIT 170356Z AUTO 06027KT 0.5SM -SN FZFG OVC050 M13/M14 A2953 RMK AO2 PK WND 06033/0323 SLP004 P0000 T11331139 FZRANO TS
KAYS Waycross / Ware County, Ga GA United States 3 0 1600 12/10 30.07
KAYS 170355Z AUTO 03003KT 1 0.25SM HZ OVC002 12/10 A3007 RMK AO2 T01200095 TS
KQEJ 6 11 1600 -6/-8 29.90
KQEJ 170410Z AUTO 22006G11KT 1600 HZ OVC014 M06/M08 A2990 RMK A02 TS
KQWM 11 19 2800 16/15 29.95
KQWM 170355Z 11011G19KT 2800 TSRA BR FEW046 16/15 A2995 RMK AO2A RAB0346E0352SHRAB0352 SLP141 WND DATA ESTMD P0000
PAYA YAKUTAT AIRPORT AK United States 5 0 3200 -3/-5 30.05
PAYA 170408Z AUTO 08005KT 2SM -SN BR SCT017 BKN023 OVC036 M03/M05 A3005 RMK AO2 P0001 T10331050 TS $

Show more

Close Menu